createdAt,value
2022-11-15T00:01:39.501Z,8.52
2022-11-15T00:04:09.046Z,8.54
2022-11-15T00:06:36.899Z,8.54
2022-11-15T00:09:04.901Z,8.57
2022-11-15T00:11:33.204Z,8.59
2022-11-15T00:14:03.261Z,8.63
2022-11-15T00:16:31.384Z,8.67
2022-11-15T00:18:59.572Z,8.70
2022-11-15T00:21:29.053Z,8.71
2022-11-15T00:23:57.039Z,8.74
2022-11-15T00:26:25.053Z,8.80
2022-11-15T00:28:53.671Z,8.82
2022-11-15T00:31:22.121Z,8.83
2022-11-15T00:33:50.513Z,8.85
2022-11-15T00:36:18.843Z,8.87
2022-11-15T00:38:48.396Z,8.90
2022-11-15T00:41:16.319Z,8.91
2022-11-15T00:43:48.039Z,8.93
2022-11-15T00:46:16.134Z,8.93
2022-11-15T00:48:44.015Z,8.97
2022-11-15T00:51:14.745Z,8.95
2022-11-15T00:53:42.797Z,8.93
2022-11-15T00:56:12.084Z,8.93
2022-11-15T00:58:40.104Z,8.96
2022-11-15T01:01:09.220Z,9.01
2022-11-15T01:03:39.631Z,9.01
2022-11-15T01:06:08.707Z,9.00
2022-11-15T01:08:37.103Z,9.01
2022-11-15T01:11:05.432Z,9.06
2022-11-15T01:13:35.607Z,9.07
2022-11-15T01:16:10.190Z,9.18
2022-11-15T01:18:38.940Z,9.21
2022-11-15T01:21:07.666Z,9.20
2022-11-15T01:23:35.903Z,9.20
2022-11-15T01:26:05.246Z,9.21
2022-11-15T01:28:33.440Z,9.21
2022-11-15T01:31:03.442Z,9.30
2022-11-15T01:33:32.263Z,9.33
2022-11-15T01:36:00.551Z,9.35
2022-11-15T01:38:28.297Z,9.38
2022-11-15T01:40:56.238Z,9.43
2022-11-15T01:43:25.240Z,9.54
2022-11-15T01:45:55.505Z,9.57
2022-11-15T01:48:27.681Z,9.58
2022-11-15T01:50:55.804Z,9.60
2022-11-15T01:53:25.624Z,9.64
2022-11-15T01:55:53.998Z,9.68
2022-11-15T01:58:22.135Z,9.69
2022-11-15T02:00:50.999Z,9.71
2022-11-15T02:03:19.135Z,9.82
2022-11-15T02:05:48.274Z,9.82
2022-11-15T02:08:21.103Z,9.90
2022-11-15T02:10:49.574Z,9.90
2022-11-15T02:13:18.299Z,9.95
2022-11-15T02:15:51.467Z,9.99
2022-11-15T02:18:24.901Z,10.21
2022-11-15T02:20:59.446Z,10.29
2022-11-15T02:23:38.156Z,10.67
2022-11-15T02:26:13.892Z,10.68
2022-11-15T02:28:53.227Z,10.87
2022-11-15T02:31:28.436Z,11.00
2022-11-15T02:34:02.376Z,11.13
2022-11-15T02:36:35.771Z,11.11
2022-11-15T02:39:09.735Z,11.14
2022-11-15T02:41:45.681Z,11.27
2022-11-15T02:44:14.766Z,11.35
2022-11-15T02:47:05.702Z,11.49
2022-11-15T02:49:35.524Z,11.52
2022-11-15T02:52:04.017Z,11.45
2022-11-15T02:54:32.846Z,11.50
2022-11-15T02:57:03.035Z,11.57
2022-11-15T02:59:41.829Z,11.56
2022-11-15T03:02:20.887Z,11.60
2022-11-15T03:04:54.953Z,11.54
2022-11-15T03:07:26.994Z,11.53
2022-11-15T03:09:58.916Z,11.50
2022-11-15T03:12:30.250Z,11.58
2022-11-15T03:15:03.469Z,11.59
2022-11-15T03:17:35.943Z,11.58
2022-11-15T03:20:06.328Z,11.68
2022-11-15T03:22:37.916Z,11.65
2022-11-15T03:25:08.755Z,11.66
2022-11-15T03:27:38.369Z,11.74
2022-11-15T03:30:08.643Z,11.70
2022-11-15T03:32:52.138Z,11.69
2022-11-15T03:35:23.463Z,11.69
2022-11-15T03:38:03.435Z,11.75
2022-11-15T03:40:37.965Z,11.73
2022-11-15T03:43:10.887Z,11.68
2022-11-15T03:45:42.813Z,11.62
2022-11-15T03:48:15.455Z,11.58
2022-11-15T03:50:43.752Z,11.62
2022-11-15T03:53:11.971Z,11.64
2022-11-15T03:55:39.837Z,11.66
2022-11-15T03:58:07.922Z,11.64
2022-11-15T04:00:35.890Z,11.65
2022-11-15T04:03:03.899Z,11.60
2022-11-15T04:05:33.447Z,11.69
2022-11-15T04:08:01.719Z,11.74
2022-11-15T04:10:29.972Z,11.77
2022-11-15T04:12:57.959Z,11.69
2022-11-15T04:15:26.284Z,11.67
2022-11-15T04:17:55.502Z,11.72
2022-11-15T04:20:44.914Z,11.71
2022-11-15T04:23:33.330Z,11.71
2022-11-15T04:26:02.906Z,11.73
2022-11-15T04:28:31.130Z,11.76
2022-11-15T04:30:59.368Z,11.76
2022-11-15T04:33:29.282Z,11.73
2022-11-15T04:36:15.540Z,11.79
2022-11-15T04:38:45.206Z,11.71
2022-11-15T04:41:13.012Z,11.75
2022-11-15T04:43:40.820Z,11.68
2022-11-15T04:46:08.650Z,11.73
2022-11-15T04:48:36.504Z,11.76
2022-11-15T04:51:04.565Z,11.72
2022-11-15T04:53:32.796Z,11.75
2022-11-15T04:56:02.325Z,11.79
2022-11-15T04:58:30.121Z,11.80
2022-11-15T05:00:58.100Z,11.78
2022-11-15T05:03:55.222Z,11.81
2022-11-15T05:06:23.238Z,11.93
2022-11-15T05:08:51.122Z,11.91
2022-11-15T05:11:21.292Z,11.93
2022-11-15T05:13:49.615Z,11.95
2022-11-15T05:16:17.453Z,11.95
2022-11-15T05:18:45.642Z,12.01
2022-11-15T05:21:15.590Z,11.99
2022-11-15T05:23:43.730Z,12.04
2022-11-15T05:26:12.653Z,12.06
2022-11-15T05:28:42.059Z,12.05
2022-11-15T05:31:11.462Z,12.07
2022-11-15T05:33:43.636Z,12.06
2022-11-15T05:36:15.805Z,12.01
2022-11-15T05:38:45.907Z,12.05
2022-11-15T05:41:18.279Z,12.08
2022-11-15T05:43:51.811Z,12.09
2022-11-15T05:46:20.316Z,12.13
2022-11-15T05:48:51.304Z,12.05
2022-11-15T05:51:22.380Z,12.03
2022-11-15T05:53:51.456Z,12.03
2022-11-15T05:56:19.591Z,12.07
2022-11-15T05:58:49.918Z,12.05
2022-11-15T06:01:29.713Z,12.00
2022-11-15T06:04:00.009Z,11.86
2022-11-15T06:06:29.954Z,11.59
2022-11-15T06:08:58.173Z,11.45
2022-11-15T06:11:26.409Z,11.34
2022-11-15T06:13:56.307Z,11.32
2022-11-15T06:16:25.275Z,11.22
2022-11-15T06:18:53.227Z,11.26
2022-11-15T06:21:21.575Z,11.22
2022-11-15T06:23:49.743Z,11.16
2022-11-15T06:26:18.420Z,11.16
2022-11-15T06:28:47.051Z,11.20
2022-11-15T06:31:17.210Z,11.12
2022-11-15T06:33:45.424Z,11.20
2022-11-15T06:36:17.945Z,11.23
2022-11-15T06:38:46.926Z,11.26
2022-11-15T06:41:15.730Z,11.24
2022-11-15T06:43:44.981Z,11.22
2022-11-15T06:46:13.080Z,11.24
2022-11-15T06:48:43.958Z,11.24
2022-11-15T06:51:12.468Z,11.18
2022-11-15T06:53:42.920Z,11.23
2022-11-15T06:56:13.531Z,11.28
2022-11-15T06:58:42.883Z,11.30
2022-11-15T07:01:16.288Z,11.27
2022-11-15T07:03:47.512Z,11.32
2022-11-15T07:06:16.056Z,11.31
2022-11-15T07:08:44.295Z,11.37
2022-11-15T07:11:15.697Z,11.39
2022-11-15T07:13:44.399Z,11.34
2022-11-15T07:16:12.824Z,11.30
2022-11-15T07:18:42.039Z,11.34
2022-11-15T07:21:14.007Z,11.51
2022-11-15T07:23:46.427Z,11.44
2022-11-15T07:26:14.555Z,11.55
2022-11-15T07:28:44.874Z,11.53
2022-11-15T07:31:13.145Z,11.64
2022-11-15T07:33:41.590Z,11.72
2022-11-15T07:36:15.543Z,11.73
2022-11-15T07:38:47.862Z,11.73
2022-11-15T07:41:15.952Z,11.84
2022-11-15T07:43:43.844Z,11.95
2022-11-15T07:46:11.895Z,12.11
2022-11-15T07:48:45.320Z,12.26
2022-11-15T07:51:18.205Z,12.45
2022-11-15T07:53:46.440Z,12.61
2022-11-15T07:56:14.503Z,12.76
2022-11-15T07:58:42.783Z,13.22
2022-11-15T08:01:11.656Z,13.81
2022-11-15T08:03:39.634Z,13.99
2022-11-15T08:06:08.903Z,14.12
2022-11-15T08:08:38.227Z,14.41
2022-11-15T08:11:06.241Z,14.62
2022-11-15T08:13:34.513Z,14.68
2022-11-15T08:16:03.865Z,14.41
2022-11-15T08:18:31.811Z,14.39
2022-11-15T08:21:00.759Z,14.19
2022-11-15T08:23:28.755Z,14.28
2022-11-15T08:26:02.551Z,14.37
2022-11-15T08:28:30.939Z,14.20
2022-11-15T08:30:58.925Z,14.46
2022-11-15T08:33:26.853Z,14.49
2022-11-15T08:35:57.807Z,14.41
2022-11-15T08:38:25.738Z,15.25
2022-11-15T08:40:54.080Z,16.28
2022-11-15T08:43:23.210Z,15.92
2022-11-15T08:45:55.288Z,16.19
2022-11-15T08:48:24.332Z,15.97
2022-11-15T08:50:55.573Z,17.22
2022-11-15T08:53:24.221Z,17.30
2022-11-15T08:55:52.013Z,18.69
2022-11-15T08:58:19.828Z,19.16
2022-11-15T09:00:49.007Z,18.18
2022-11-15T09:03:17.165Z,17.26
2022-11-15T09:05:45.129Z,16.68
2022-11-15T09:08:32.771Z,16.49
2022-11-15T09:11:04.571Z,16.32
2022-11-15T09:13:32.405Z,16.83
2022-11-15T09:16:01.951Z,16.07
2022-11-15T09:18:30.193Z,16.20
2022-11-15T09:20:59.599Z,16.10
2022-11-15T09:23:28.059Z,16.72
2022-11-15T09:26:00.207Z,17.59
2022-11-15T09:28:28.197Z,18.34
2022-11-15T09:30:57.725Z,17.46
2022-11-15T09:33:31.291Z,17.41
2022-11-15T09:36:01.566Z,17.15
2022-11-15T09:38:29.883Z,16.71
2022-11-15T09:41:07.777Z,16.91
2022-11-15T09:43:39.636Z,17.26
2022-11-15T09:46:13.651Z,17.60
2022-11-15T09:49:00.219Z,18.80
2022-11-15T09:51:34.225Z,18.91
2022-11-15T09:56:53.945Z,20.86
2022-11-15T09:59:38.302Z,21.46
2022-11-15T10:02:14.400Z,22.09
2022-11-15T10:04:43.706Z,21.65
2022-11-15T10:07:16.571Z,21.99
2022-11-15T10:09:48.822Z,21.75
2022-11-15T10:12:17.675Z,18.95
2022-11-15T10:14:51.600Z,18.62
2022-11-15T10:17:32.044Z,19.62
2022-11-15T10:20:06.493Z,21.73
2022-11-15T10:22:40.548Z,21.47
2022-11-15T10:25:14.601Z,23.60
2022-11-15T10:27:43.793Z,23.68
2022-11-15T10:30:14.773Z,22.66
2022-11-15T10:32:43.568Z,22.75
2022-11-15T10:35:19.049Z,22.04
2022-11-15T10:37:48.356Z,21.90
2022-11-15T10:40:18.695Z,22.55
2022-11-15T10:42:46.878Z,20.69
2022-11-15T10:45:25.342Z,20.02
2022-11-15T10:47:53.653Z,20.04
2022-11-15T10:50:31.911Z,20.89
2022-11-15T10:53:03.559Z,20.55
2022-11-15T10:55:32.709Z,20.19
2022-11-15T10:58:04.531Z,19.70
2022-11-15T11:00:39.585Z,21.83
2022-11-15T11:03:08.987Z,21.75
2022-11-15T11:05:42.355Z,21.13
2022-11-15T11:08:26.177Z,21.83
2022-11-15T11:11:00.025Z,23.26
2022-11-15T11:13:30.939Z,24.50
2022-11-15T11:16:02.383Z,24.15
2022-11-15T11:18:32.185Z,25.91
2022-11-15T11:21:03.968Z,24.36
2022-11-15T11:23:43.855Z,23.38
2022-11-15T11:26:20.466Z,23.08
2022-11-15T11:28:55.359Z,22.19
2022-11-15T11:31:30.488Z,22.43
2022-11-15T11:34:01.950Z,24.36
2022-11-15T11:36:41.678Z,25.92
2022-11-15T11:39:18.990Z,26.37
2022-11-15T11:41:52.013Z,26.55
2022-11-15T11:44:30.476Z,25.47
2022-11-15T11:47:01.528Z,25.69
2022-11-15T11:49:32.917Z,24.39
2022-11-15T11:52:04.300Z,22.76
2022-11-15T11:54:39.703Z,24.69
2022-11-15T11:57:11.883Z,24.90
2022-11-15T11:59:44.480Z,25.38
2022-11-15T12:02:16.499Z,25.37
2022-11-15T12:04:46.868Z,25.46
2022-11-15T12:07:17.398Z,25.13
2022-11-15T12:09:51.343Z,24.62
2022-11-15T12:12:23.686Z,24.19
2022-11-15T12:14:53.785Z,23.40
2022-11-15T12:17:23.863Z,22.65
2022-11-15T12:19:51.873Z,22.57
2022-11-15T12:22:21.938Z,23.24
2022-11-15T12:24:54.404Z,22.79
2022-11-15T12:27:35.534Z,21.44
2022-11-15T12:30:05.901Z,19.21
2022-11-15T12:32:35.833Z,18.09
2022-11-15T12:35:05.373Z,17.63
2022-11-15T12:37:55.976Z,16.88
2022-11-15T12:40:35.975Z,16.35
2022-11-15T12:43:28.902Z,15.77
2022-11-15T12:45:56.905Z,15.75
2022-11-15T12:48:43.357Z,15.63
2022-11-15T12:51:11.437Z,15.33
2022-11-15T12:53:39.310Z,15.44
2022-11-15T12:56:19.803Z,15.39
2022-11-15T12:58:48.804Z,15.38
2022-11-15T13:01:31.706Z,15.43
2022-11-15T13:04:25.056Z,15.56
2022-11-15T13:06:54.147Z,15.72
2022-11-15T13:09:41.261Z,15.44
2022-11-15T13:12:14.460Z,15.58
2022-11-15T13:14:53.179Z,15.76
2022-11-15T13:17:34.510Z,15.52
2022-11-15T13:20:11.499Z,16.13
2022-11-15T13:22:57.419Z,16.75
2022-11-15T13:25:46.461Z,17.04
2022-11-15T13:28:32.639Z,17.25
2022-11-15T13:31:02.068Z,17.78
2022-11-15T13:33:36.253Z,17.57
2022-11-15T13:36:11.327Z,17.82
2022-11-15T13:38:41.064Z,17.53
2022-11-15T13:41:18.391Z,17.78
2022-11-15T13:44:00.995Z,16.95
2022-11-15T13:46:30.197Z,16.02
2022-11-15T13:48:59.220Z,15.71
2022-11-15T13:51:33.489Z,16.02
2022-11-15T13:54:08.445Z,16.31
2022-11-15T13:56:37.509Z,16.75
2022-11-15T13:59:12.148Z,16.22
2022-11-15T14:01:44.169Z,15.73
2022-11-15T14:04:14.825Z,15.48
2022-11-15T14:06:46.995Z,15.26
2022-11-15T14:09:27.457Z,14.92
2022-11-15T14:11:56.093Z,14.69
2022-11-15T14:14:25.891Z,14.67
2022-11-15T14:16:55.189Z,14.62
2022-11-15T14:19:44.674Z,14.62
2022-11-15T14:22:14.603Z,14.62
2022-11-15T14:24:43.140Z,14.42
2022-11-15T14:27:21.254Z,14.43
2022-11-15T14:29:50.938Z,14.34
2022-11-15T14:32:20.306Z,14.27
2022-11-15T14:34:48.332Z,14.14
2022-11-15T14:37:21.668Z,13.99
2022-11-15T14:39:49.723Z,13.99
2022-11-15T14:42:17.824Z,14.00
2022-11-15T14:44:46.325Z,13.79
2022-11-15T14:47:15.911Z,13.64
2022-11-15T14:49:43.733Z,13.80
2022-11-15T14:52:32.599Z,13.73
2022-11-15T14:55:02.180Z,13.73
2022-11-15T14:57:30.079Z,13.74
2022-11-15T14:59:58.146Z,13.63
2022-11-15T15:02:28.647Z,13.53
2022-11-15T15:04:56.491Z,13.55
2022-11-15T15:07:24.634Z,13.37
2022-11-15T15:09:52.489Z,13.34
2022-11-15T15:12:21.422Z,13.23
2022-11-15T15:14:50.360Z,13.30
2022-11-15T15:17:18.664Z,13.33
2022-11-15T15:19:48.110Z,13.15
2022-11-15T15:22:17.137Z,13.10
2022-11-15T15:24:45.378Z,13.19
2022-11-15T15:27:13.551Z,13.06
2022-11-15T15:29:41.780Z,12.96
2022-11-15T15:32:10.840Z,12.92
2022-11-15T15:34:39.595Z,12.93
2022-11-15T15:37:25.555Z,12.87
2022-11-15T15:39:58.250Z,12.86
2022-11-15T15:42:26.366Z,12.78
2022-11-15T15:44:54.238Z,12.84
2022-11-15T15:47:22.554Z,12.80
2022-11-15T15:49:51.029Z,12.73
2022-11-15T15:52:18.905Z,12.76
2022-11-15T15:54:46.853Z,12.71
2022-11-15T15:57:16.065Z,12.72
2022-11-15T15:59:44.036Z,12.71
2022-11-15T16:02:13.465Z,12.69
2022-11-15T16:04:41.269Z,12.72
2022-11-15T16:07:14.109Z,12.65
2022-11-15T16:09:59.935Z,12.67
2022-11-15T16:12:29.372Z,12.63
2022-11-15T16:14:57.467Z,12.58
2022-11-15T16:17:30.092Z,12.57
2022-11-15T16:20:00.956Z,12.58
2022-11-15T16:22:30.104Z,12.61
2022-11-15T16:25:00.302Z,12.56
2022-11-15T16:27:45.784Z,12.53
2022-11-15T16:30:16.144Z,12.47
2022-11-15T16:32:44.578Z,12.47
2022-11-15T16:35:13.309Z,12.53
2022-11-15T16:37:41.664Z,12.46
2022-11-15T16:40:19.010Z,12.37
2022-11-15T16:42:49.189Z,12.34
2022-11-15T16:45:18.419Z,12.32
2022-11-15T16:47:49.417Z,12.35
2022-11-15T16:50:24.234Z,12.35
2022-11-15T16:52:53.241Z,12.37
2022-11-15T16:55:21.909Z,12.36
2022-11-15T16:57:54.284Z,12.41
2022-11-15T17:00:23.202Z,12.37
2022-11-15T17:02:52.186Z,12.33
2022-11-15T17:05:24.561Z,12.31
2022-11-15T17:07:56.876Z,12.36
2022-11-15T17:10:30.764Z,12.31
2022-11-15T17:13:00.379Z,12.37
2022-11-15T17:15:28.384Z,12.41
2022-11-15T17:18:02.388Z,12.64
2022-11-15T17:20:32.036Z,12.51
2022-11-15T17:23:14.619Z,12.45
2022-11-15T17:25:42.919Z,12.41
2022-11-15T17:28:12.599Z,12.43
2022-11-15T17:30:45.617Z,12.43
2022-11-15T17:33:13.884Z,12.42
2022-11-15T17:35:50.061Z,12.40
2022-11-15T17:38:18.678Z,12.37
2022-11-15T17:40:49.284Z,12.41
2022-11-15T17:43:18.932Z,12.56
2022-11-15T17:45:46.954Z,12.52
2022-11-15T17:48:14.916Z,12.51
2022-11-15T17:50:43.401Z,12.52
2022-11-15T17:53:11.565Z,12.54
2022-11-15T17:55:42.207Z,12.50
2022-11-15T17:58:10.301Z,12.48
2022-11-15T18:00:39.656Z,12.42
2022-11-15T18:03:11.633Z,12.47
2022-11-15T18:05:41.109Z,12.46
2022-11-15T18:08:15.263Z,12.46
2022-11-15T18:10:43.745Z,12.53
2022-11-15T18:13:12.386Z,12.55
2022-11-15T18:15:54.604Z,12.51
2022-11-15T18:18:22.592Z,12.50
2022-11-15T18:20:50.635Z,12.72
2022-11-15T18:23:18.930Z,12.81
2022-11-15T18:25:52.256Z,12.76
2022-11-15T18:28:20.360Z,12.84
2022-11-15T18:30:48.544Z,12.97
2022-11-15T18:33:18.828Z,12.93
2022-11-15T18:35:46.868Z,13.06
2022-11-15T18:38:14.803Z,13.00
2022-11-15T18:40:42.604Z,13.10
2022-11-15T18:43:10.437Z,13.13
2022-11-15T18:45:38.299Z,13.05
2022-11-15T18:48:06.453Z,12.98
2022-11-15T18:50:35.856Z,12.94
2022-11-15T18:53:03.941Z,12.91
2022-11-15T18:55:31.861Z,12.90
2022-11-15T18:58:03.295Z,12.91
2022-11-15T19:00:31.521Z,13.00
2022-11-15T19:02:59.540Z,13.07
2022-11-15T19:05:27.410Z,12.96
2022-11-15T19:07:57.113Z,12.91
2022-11-15T19:10:25.366Z,12.87
2022-11-15T19:12:53.595Z,12.94
2022-11-15T19:15:21.540Z,12.92
2022-11-15T19:17:49.350Z,12.86
2022-11-15T19:20:17.462Z,12.91
2022-11-15T19:22:45.634Z,12.90
2022-11-15T19:25:15.210Z,12.88
2022-11-15T19:27:43.339Z,13.05
2022-11-15T19:30:11.851Z,13.06
2022-11-15T19:32:40.179Z,13.08
2022-11-15T19:35:08.701Z,13.20
2022-11-15T19:37:36.723Z,13.23
2022-11-15T19:40:05.966Z,13.24
2022-11-15T19:42:35.491Z,13.28
2022-11-15T19:45:03.554Z,13.31
2022-11-15T19:47:31.538Z,13.28
2022-11-15T19:49:59.745Z,13.36
2022-11-15T19:52:27.710Z,13.48
2022-11-15T19:54:56.592Z,13.48
2022-11-15T19:57:24.882Z,13.53
2022-11-15T19:59:54.395Z,13.51
2022-11-15T20:02:22.560Z,13.56
2022-11-15T20:04:51.632Z,13.55
2022-11-15T20:07:19.857Z,13.49
2022-11-15T20:09:48.405Z,13.29
2022-11-15T20:12:16.700Z,13.13
2022-11-15T20:14:45.974Z,13.00
2022-11-15T20:17:15.582Z,12.90
2022-11-15T20:19:43.713Z,12.82
2022-11-15T20:22:14.319Z,12.72
2022-11-15T20:24:42.292Z,12.67
2022-11-15T20:27:10.225Z,12.60
2022-11-15T20:29:41.105Z,12.55
2022-11-15T20:32:12.163Z,12.56
2022-11-15T20:34:41.827Z,12.54
2022-11-15T20:37:09.678Z,12.51
2022-11-15T20:39:37.641Z,12.35
2022-11-15T20:42:05.478Z,12.37
2022-11-15T20:44:33.746Z,12.26
2022-11-15T20:47:02.068Z,12.24
2022-11-15T20:49:30.489Z,12.31
2022-11-15T20:52:00.738Z,12.21
2022-11-15T20:54:29.606Z,12.17
2022-11-15T20:56:57.898Z,12.09
2022-11-15T20:59:26.613Z,12.04
2022-11-15T21:01:55.237Z,11.94
2022-11-15T21:04:23.497Z,11.94
2022-11-15T21:06:51.752Z,11.80
2022-11-15T21:09:39.122Z,11.77
2022-11-15T21:12:13.497Z,11.84
2022-11-15T21:14:42.094Z,11.80
2022-11-15T21:17:09.921Z,11.71
2022-11-15T21:19:38.127Z,11.87
2022-11-15T21:22:07.129Z,11.91
2022-11-15T21:24:36.530Z,11.82
2022-11-15T21:27:05.217Z,11.97
2022-11-15T21:29:39.679Z,11.91
2022-11-15T21:32:08.273Z,11.94
2022-11-15T21:34:37.030Z,12.00
2022-11-15T21:37:05.371Z,11.93
2022-11-15T21:39:33.442Z,11.96
2022-11-15T21:42:02.976Z,11.91
2022-11-15T21:44:31.747Z,11.95
2022-11-15T21:47:00.186Z,11.93
2022-11-15T21:49:33.310Z,11.91
2022-11-15T21:52:01.303Z,11.90
2022-11-15T21:54:29.235Z,11.98
2022-11-15T21:56:58.409Z,12.05
2022-11-15T21:59:27.656Z,12.06
2022-11-15T22:02:13.396Z,12.03
2022-11-15T22:04:41.743Z,12.11
2022-11-15T22:07:09.757Z,12.04
2022-11-15T22:09:42.114Z,11.92
2022-11-15T22:12:14.864Z,11.92
2022-11-15T22:14:44.606Z,11.88
2022-11-15T22:17:12.848Z,11.87
2022-11-15T22:19:52.321Z,11.82
2022-11-15T22:22:20.941Z,11.76
2022-11-15T22:24:48.719Z,11.72
2022-11-15T22:27:17.125Z,11.64
2022-11-15T22:29:46.509Z,11.57
2022-11-15T22:32:14.711Z,11.55
2022-11-15T22:34:42.886Z,11.55
2022-11-15T22:37:20.393Z,11.51
2022-11-15T22:39:49.404Z,11.60
2022-11-15T22:42:22.303Z,11.62
2022-11-15T22:44:53.594Z,11.61
2022-11-15T22:47:21.464Z,11.45
2022-11-15T22:49:49.325Z,11.48
2022-11-15T22:52:19.938Z,11.38
2022-11-15T22:54:48.988Z,11.38
2022-11-15T22:57:16.893Z,11.31
2022-11-15T22:59:44.785Z,11.35
2022-11-15T23:02:14.132Z,11.35
2022-11-15T23:04:44.050Z,11.31
2022-11-15T23:07:12.034Z,11.29
2022-11-15T23:09:40.510Z,11.36
2022-11-15T23:12:27.555Z,11.30
2022-11-15T23:14:56.035Z,11.24
2022-11-15T23:17:25.873Z,11.33
2022-11-15T23:19:56.806Z,11.27
2022-11-15T23:22:42.309Z,11.16
2022-11-15T23:25:10.708Z,11.07
2022-11-15T23:27:39.506Z,11.04
2022-11-15T23:30:25.706Z,10.98
2022-11-15T23:33:13.415Z,11.07
2022-11-15T23:35:41.837Z,10.98
2022-11-15T23:38:09.842Z,11.09
2022-11-15T23:40:40.830Z,10.97
2022-11-15T23:43:09.555Z,10.93
2022-11-15T23:45:38.669Z,10.86
2022-11-15T23:48:08.017Z,10.94
2022-11-15T23:50:35.896Z,10.91
2022-11-15T23:53:03.716Z,10.90
2022-11-15T23:55:32.091Z,10.84
2022-11-15T23:58:00.829Z,10.78
